createdAt,value
2023-02-08T00:00:58.752Z,77.06
2023-02-08T00:03:25.747Z,76.56
2023-02-08T00:05:53.126Z,76.59
2023-02-08T00:08:19.768Z,76.04
2023-02-08T00:10:46.412Z,75.91
2023-02-08T00:13:13.112Z,76.33
2023-02-08T00:15:44.395Z,76.43
2023-02-08T00:18:11.026Z,77.04
2023-02-08T00:20:43.560Z,76.76
2023-02-08T00:23:10.751Z,76.51
2023-02-08T00:25:37.616Z,76.52
2023-02-08T00:28:05.042Z,76.36
2023-02-08T00:30:33.049Z,76.28
2023-02-08T00:33:01.359Z,76.59
2023-02-08T00:35:28.629Z,76.22
2023-02-08T00:37:55.302Z,76.89
2023-02-08T00:40:21.878Z,76.68
2023-02-08T00:42:50.087Z,76.20
2023-02-08T00:45:16.820Z,76.88
2023-02-08T00:47:43.489Z,75.76
2023-02-08T00:50:12.558Z,76.07
2023-02-08T00:52:39.309Z,76.05
2023-02-08T00:55:06.321Z,76.22
2023-02-08T00:57:34.578Z,76.25
2023-02-08T01:00:01.623Z,75.72
2023-02-08T01:02:29.235Z,75.85
2023-02-08T01:04:57.530Z,75.43
2023-02-08T01:07:24.095Z,75.86
2023-02-08T01:09:50.646Z,75.93
2023-02-08T01:12:19.107Z,76.26
2023-02-08T01:14:45.798Z,76.28
2023-02-08T01:17:12.385Z,76.46
2023-02-08T01:19:39.232Z,76.33
2023-02-08T01:22:06.786Z,76.49
2023-02-08T01:24:33.578Z,75.58
2023-02-08T01:27:00.196Z,75.60
2023-02-08T01:29:26.954Z,75.75
2023-02-08T01:31:53.667Z,75.97
2023-02-08T01:34:20.309Z,75.41
2023-02-08T01:36:46.909Z,75.39
2023-02-08T01:39:13.492Z,76.02
2023-02-08T01:41:45.059Z,75.91
2023-02-08T01:44:11.564Z,75.74
2023-02-08T01:46:40.428Z,75.69
2023-02-08T01:49:17.645Z,75.71
2023-02-08T01:52:16.539Z,75.70
2023-02-08T01:55:06.168Z,75.28
2023-02-08T01:57:32.926Z,75.95
2023-02-08T02:00:07.672Z,76.40
2023-02-08T02:02:36.091Z,75.83
2023-02-08T02:05:03.245Z,76.25
2023-02-08T02:07:31.110Z,75.41
2023-02-08T02:10:09.186Z,75.74
2023-02-08T02:12:38.754Z,75.72
2023-02-08T02:15:07.049Z,76.08
2023-02-08T02:17:33.886Z,76.05
2023-02-08T02:20:07.227Z,76.06
2023-02-08T02:23:01.916Z,75.92
2023-02-08T02:25:56.689Z,76.18
2023-02-08T02:28:45.807Z,76.10
2023-02-08T02:31:15.438Z,75.82
2023-02-08T02:34:11.159Z,75.21
2023-02-08T02:36:59.169Z,75.39
2023-02-08T02:40:13.977Z,75.22
2023-02-08T02:43:11.339Z,75.36
2023-02-08T02:45:50.166Z,75.61
2023-02-08T02:48:22.402Z,76.36
2023-02-08T02:50:55.178Z,75.75
2023-02-08T02:53:31.469Z,75.97
2023-02-08T02:56:04.040Z,76.25
2023-02-08T02:58:33.032Z,76.17
2023-02-08T03:01:00.654Z,76.02
2023-02-08T03:03:30.592Z,75.61
2023-02-08T03:06:03.646Z,76.05
2023-02-08T03:09:13.289Z,75.93
2023-02-08T03:11:57.776Z,76.01
2023-02-08T03:14:56.455Z,76.49
2023-02-08T03:17:59.777Z,75.99
2023-02-08T03:20:32.205Z,76.01
2023-02-08T03:23:23.777Z,75.65
2023-02-08T03:25:53.861Z,75.88
2023-02-08T03:28:35.918Z,75.75
2023-02-08T03:31:27.009Z,76.04
2023-02-08T03:34:58.579Z,75.83
2023-02-08T03:37:30.650Z,75.79
2023-02-08T03:40:06.843Z,76.01
2023-02-08T03:42:33.898Z,76.27
2023-02-08T03:45:24.199Z,76.20
2023-02-08T03:47:53.752Z,75.79
2023-02-08T03:50:22.292Z,75.80
2023-02-08T03:52:53.263Z,76.24
2023-02-08T03:55:28.499Z,76.59
2023-02-08T03:57:59.675Z,76.53
2023-02-08T04:00:28.640Z,76.62
2023-02-08T04:03:05.856Z,76.26
2023-02-08T04:05:33.242Z,77.22
2023-02-08T04:07:59.836Z,76.78
2023-02-08T04:10:26.557Z,77.01
2023-02-08T04:12:53.964Z,76.44
2023-02-08T04:15:20.688Z,76.75
2023-02-08T04:17:48.605Z,76.76
2023-02-08T04:20:15.197Z,76.21
2023-02-08T04:22:41.757Z,76.86
2023-02-08T04:25:09.401Z,76.38
2023-02-08T04:27:36.156Z,76.50
2023-02-08T04:30:05.166Z,76.42
2023-02-08T04:32:31.878Z,76.92
2023-02-08T04:34:58.525Z,76.72
2023-02-08T04:37:25.170Z,76.80
2023-02-08T04:39:54.936Z,76.84
2023-02-08T04:42:23.974Z,76.65
2023-02-08T04:44:50.582Z,76.37
2023-02-08T04:47:17.238Z,76.06
2023-02-08T04:49:43.810Z,76.27
2023-02-08T04:52:10.429Z,76.33
2023-02-08T04:54:40.841Z,76.19
2023-02-08T04:57:08.828Z,75.97
2023-02-08T04:59:35.383Z,76.51
2023-02-08T05:02:01.980Z,76.63
2023-02-08T05:04:28.623Z,75.94
2023-02-08T05:06:55.208Z,76.13
2023-02-08T05:09:23.362Z,76.41
2023-02-08T05:11:49.983Z,76.71
2023-02-08T05:14:16.544Z,77.13
2023-02-08T05:16:43.957Z,77.17
2023-02-08T05:19:11.912Z,77.14
2023-02-08T05:21:38.485Z,77.38
2023-02-08T05:24:06.109Z,76.99
2023-02-08T05:26:32.991Z,76.59
2023-02-08T05:28:59.677Z,76.96
2023-02-08T05:31:26.494Z,77.23
2023-02-08T05:33:53.281Z,76.46
2023-02-08T17:10:35.067Z,82.65
2023-02-08T17:13:19.825Z,82.84
2023-02-08T17:15:48.990Z,83.05
2023-02-08T17:18:15.943Z,82.44
2023-02-08T17:20:43.382Z,81.99
2023-02-08T17:23:16.034Z,81.31
2023-02-08T17:25:43.529Z,81.39
2023-02-08T17:28:24.080Z,80.76
2023-02-08T17:30:50.872Z,81.08
2023-02-08T17:33:18.516Z,80.86
2023-02-08T17:35:52.069Z,80.62
2023-02-08T17:38:20.961Z,80.12
2023-02-08T17:40:47.688Z,80.37
2023-02-08T17:43:14.574Z,80.76
2023-02-08T17:45:43.801Z,80.53
2023-02-08T17:48:13.303Z,80.36
2023-02-08T17:50:44.835Z,79.89
2023-02-08T17:53:11.734Z,80.00
2023-02-08T17:55:42.057Z,80.32
2023-02-08T17:58:09.033Z,79.89
2023-02-08T18:00:35.659Z,79.04
2023-02-08T18:03:03.096Z,79.60
2023-02-08T18:05:32.723Z,79.74
2023-02-08T18:08:01.830Z,79.79
2023-02-08T18:10:31.168Z,79.78
2023-02-08T18:12:59.561Z,80.04
2023-02-08T18:15:26.327Z,80.08
2023-02-08T18:18:00.000Z,79.56
2023-02-08T18:20:27.650Z,79.62
2023-02-08T18:23:35.804Z,79.61
2023-02-08T18:26:16.900Z,79.76
2023-02-08T18:28:44.978Z,79.46
2023-02-08T18:31:20.992Z,79.42
2023-02-08T18:33:55.381Z,79.52
2023-02-08T18:36:23.729Z,79.55
2023-02-08T18:38:53.715Z,79.63
2023-02-08T18:41:24.327Z,79.27
2023-02-08T18:43:51.766Z,79.80
2023-02-08T18:46:21.534Z,79.63
2023-02-08T18:48:50.851Z,79.55
2023-02-08T18:51:19.837Z,79.29
2023-02-08T18:53:51.979Z,78.87
2023-02-08T18:56:26.581Z,79.72
2023-02-08T18:58:55.874Z,79.61
2023-02-08T19:01:24.429Z,79.87
2023-02-08T19:03:52.232Z,79.82
2023-02-08T19:06:23.219Z,79.68
2023-02-08T19:08:55.664Z,80.79
2023-02-08T19:11:25.227Z,81.23
2023-02-08T19:13:53.350Z,81.47
2023-02-08T19:16:22.414Z,81.89
2023-02-08T19:18:49.370Z,81.79
2023-02-08T19:21:17.866Z,82.39
2023-02-08T19:23:49.357Z,82.30
2023-02-08T19:26:25.147Z,82.54
2023-02-08T19:28:54.095Z,83.11
2023-02-08T19:31:23.240Z,83.31
2023-02-08T19:33:54.154Z,83.32
2023-02-08T19:36:23.908Z,83.38
2023-02-08T19:38:52.795Z,83.62
2023-02-08T19:41:29.039Z,83.99
2023-02-08T19:43:55.546Z,84.43
2023-02-08T19:46:23.835Z,84.10
2023-02-08T19:48:52.941Z,84.36
2023-02-08T19:51:22.965Z,84.43
2023-02-08T19:53:49.610Z,84.99
2023-02-08T19:56:18.212Z,84.72
2023-02-08T19:58:49.421Z,84.68
2023-02-08T20:01:20.738Z,84.69
2023-02-08T20:03:50.300Z,84.90
2023-02-08T20:06:23.693Z,84.83
2023-02-08T20:08:50.548Z,84.65
2023-02-08T20:11:20.363Z,85.24
2023-02-08T20:13:47.839Z,85.08
2023-02-08T20:16:14.696Z,85.55
2023-02-08T20:18:41.467Z,85.61
2023-02-08T20:21:08.665Z,85.61
2023-02-08T20:23:35.788Z,85.60
2023-02-08T20:26:15.467Z,85.59
2023-02-08T20:28:44.958Z,85.79
2023-02-08T20:31:32.568Z,85.63
2023-02-08T20:34:03.994Z,85.71
2023-02-08T20:36:37.365Z,85.84
2023-02-08T20:39:04.971Z,86.14
2023-02-08T20:41:33.967Z,85.99
2023-02-08T20:44:02.310Z,86.11
2023-02-08T20:46:32.059Z,86.07
2023-02-08T20:49:00.890Z,86.19
2023-02-08T20:51:29.479Z,86.16
2023-02-08T20:54:00.362Z,85.77
2023-02-08T20:56:31.784Z,85.92
2023-02-08T20:59:03.345Z,86.08
2023-02-08T21:01:31.140Z,85.94
2023-02-08T21:03:59.283Z,85.88
2023-02-08T21:06:31.863Z,86.07
2023-02-08T21:09:05.214Z,86.61
2023-02-08T21:11:35.379Z,86.05
2023-02-08T21:14:04.617Z,85.88
2023-02-08T21:16:34.708Z,85.95
2023-02-08T21:19:02.029Z,86.18
2023-02-08T21:21:29.354Z,85.86
2023-02-08T21:23:59.186Z,86.14
2023-02-08T21:26:27.549Z,86.50
2023-02-08T21:28:57.238Z,85.90
2023-02-08T21:31:26.175Z,85.99
2023-02-08T21:33:54.124Z,85.83
2023-02-08T21:36:23.731Z,85.93
2023-02-08T21:38:52.625Z,86.06
2023-02-08T21:41:25.368Z,85.97
2023-02-08T21:43:55.208Z,85.91
2023-02-08T21:46:24.933Z,86.15
2023-02-08T21:49:12.727Z,85.59
2023-02-08T21:51:58.928Z,85.47
2023-02-08T21:54:44.630Z,85.63
2023-02-08T21:57:19.234Z,85.57
2023-02-08T21:59:50.277Z,85.64
2023-02-08T22:02:26.032Z,85.30
2023-02-08T22:04:55.570Z,85.46
2023-02-08T22:07:23.949Z,85.79
2023-02-08T22:09:51.386Z,85.99
2023-02-08T22:12:23.277Z,85.86
2023-02-08T22:14:51.083Z,86.41
2023-02-08T22:17:18.381Z,86.03
2023-02-08T22:19:46.009Z,86.29
2023-02-08T22:22:12.858Z,86.04
2023-02-08T22:24:39.882Z,86.66
2023-02-08T22:27:06.776Z,86.45
2023-02-08T22:29:35.639Z,86.84
2023-02-08T22:32:04.801Z,86.85
2023-02-08T22:34:33.242Z,86.62
2023-02-08T22:37:03.834Z,86.46
2023-02-08T22:39:33.040Z,86.57
2023-02-08T22:42:00.067Z,86.71
2023-02-08T22:44:26.853Z,86.91
2023-02-08T22:46:53.498Z,86.86
2023-02-08T22:49:20.141Z,86.90
2023-02-08T22:51:46.828Z,86.90
2023-02-08T22:54:13.457Z,86.87
2023-02-08T22:56:40.847Z,86.82
2023-02-08T22:59:07.509Z,87.11
2023-02-08T23:01:34.115Z,87.31
2023-02-08T23:04:01.567Z,87.66
2023-02-08T23:06:28.429Z,87.93
2023-02-08T23:08:55.439Z,87.84
2023-02-08T23:11:23.026Z,87.55
2023-02-08T23:13:49.761Z,87.78
2023-02-08T23:16:18.338Z,87.67
2023-02-08T23:18:45.553Z,87.42
2023-02-08T23:21:16.657Z,86.75
2023-02-08T23:23:45.604Z,87.27
2023-02-08T23:26:15.215Z,87.40
2023-02-08T23:28:41.962Z,87.35
2023-02-08T23:31:11.011Z,87.59
2023-02-08T23:33:39.257Z,87.26
2023-02-08T23:36:06.969Z,87.37
2023-02-08T23:38:33.508Z,87.54
2023-02-08T23:41:09.679Z,87.16
2023-02-08T23:43:36.585Z,87.52
2023-02-08T23:46:12.530Z,87.48
2023-02-08T23:48:39.533Z,86.86
2023-02-08T23:51:07.123Z,87.01
2023-02-08T23:53:37.309Z,86.46
2023-02-08T23:56:11.116Z,86.10
2023-02-08T23:58:39.751Z,86.09
